createdAt,value
2018-10-07T00:00:02.245Z,99.90
2018-10-07T00:02:31.536Z,99.90
2018-10-07T00:05:00.365Z,99.90
2018-10-07T00:07:29.238Z,99.90
2018-10-07T00:09:58.114Z,99.90
2018-10-07T00:12:27.234Z,99.90
2018-10-07T00:14:56.088Z,99.90
2018-10-07T00:17:24.943Z,99.90
2018-10-07T00:19:53.792Z,99.90
2018-10-07T00:22:22.751Z,99.90
2018-10-07T00:24:51.691Z,99.90
2018-10-07T00:27:20.676Z,99.90
2018-10-07T00:29:49.581Z,99.90
2018-10-07T00:32:18.437Z,99.90
2018-10-07T00:34:53.621Z,99.90
2018-10-07T00:37:22.446Z,99.90
2018-10-07T00:39:51.263Z,99.90
2018-10-07T00:42:20.092Z,99.90
2018-10-07T00:44:48.999Z,99.90
2018-10-07T00:47:17.799Z,99.90
2018-10-07T00:49:46.719Z,99.90
2018-10-07T00:52:15.638Z,99.90
2018-10-07T00:54:44.439Z,99.90
2018-10-07T00:57:13.247Z,99.90
2018-10-07T00:59:43.151Z,99.90
2018-10-07T01:02:12.017Z,99.90
2018-10-07T01:04:40.844Z,99.90
2018-10-07T01:07:09.680Z,99.90
2018-10-07T01:09:38.671Z,99.90
2018-10-07T01:12:07.484Z,99.90
2018-10-07T01:14:36.523Z,99.90
2018-10-07T01:17:05.424Z,99.90
2018-10-07T01:19:34.275Z,99.90
2018-10-07T01:22:03.425Z,99.90
2018-10-07T01:24:32.280Z,99.90
2018-10-07T01:27:05.592Z,99.90
2018-10-07T01:29:34.467Z,99.90
2018-10-07T01:32:03.348Z,99.90
2018-10-07T01:34:32.211Z,99.90
2018-10-07T01:37:01.160Z,99.90
2018-10-07T01:39:30.076Z,99.90
2018-10-07T01:41:58.912Z,99.90
2018-10-07T01:44:27.779Z,99.90
2018-10-07T01:46:56.749Z,99.90
2018-10-07T01:49:25.647Z,99.90
2018-10-07T01:51:54.494Z,99.90
2018-10-07T01:54:23.339Z,99.90
2018-10-07T01:56:52.205Z,99.90
2018-10-07T01:59:21.251Z,99.90
2018-10-07T02:01:50.633Z,99.90
2018-10-07T02:04:19.510Z,99.90
2018-10-07T02:06:48.806Z,99.90
2018-10-07T02:09:17.652Z,99.90
2018-10-07T02:11:46.525Z,99.90
2018-10-07T02:14:15.323Z,99.90
2018-10-07T02:16:44.320Z,99.90
2018-10-07T02:19:13.192Z,99.90
2018-10-07T02:21:42.088Z,99.90
2018-10-07T02:24:10.954Z,99.90
2018-10-07T02:26:39.817Z,99.90
2018-10-07T02:29:08.715Z,99.90
2018-10-07T02:31:37.639Z,99.90
2018-10-07T02:34:06.634Z,99.90
2018-10-07T02:36:35.465Z,99.90
2018-10-07T02:39:05.952Z,99.90
2018-10-07T02:41:34.872Z,99.90
2018-10-07T02:44:03.748Z,99.90
2018-10-07T02:46:33.080Z,99.90
2018-10-07T02:49:01.933Z,99.90
2018-10-07T02:51:30.808Z,99.90
2018-10-07T02:53:59.704Z,99.90
2018-10-07T02:56:28.535Z,99.90
2018-10-07T02:58:57.412Z,99.90
2018-10-07T03:01:26.395Z,99.90
2018-10-07T03:03:55.270Z,99.90
2018-10-07T03:06:24.162Z,99.90
2018-10-07T03:08:52.981Z,99.90
2018-10-07T03:11:21.888Z,99.90
2018-10-07T03:13:50.833Z,99.90
2018-10-07T03:16:19.667Z,99.90
2018-10-07T03:18:48.586Z,99.90
2018-10-07T03:21:17.497Z,99.90
2018-10-07T03:23:46.476Z,99.90
2018-10-07T03:26:16.253Z,99.90
2018-10-07T03:28:45.531Z,99.90
2018-10-07T03:31:15.028Z,99.90
2018-10-07T03:33:43.885Z,99.90
2018-10-07T03:36:13.599Z,99.90
2018-10-07T03:38:42.579Z,99.90
2018-10-07T03:41:11.656Z,99.90
2018-10-07T03:43:40.548Z,99.90
2018-10-07T03:46:09.388Z,99.90
2018-10-07T03:48:44.940Z,99.90
2018-10-07T03:51:14.291Z,99.90
2018-10-07T03:53:43.083Z,99.90
2018-10-07T03:56:12.095Z,99.90
2018-10-07T03:58:40.894Z,99.90
2018-10-07T04:01:09.708Z,99.90
2018-10-07T04:03:38.524Z,99.90
2018-10-07T04:06:07.338Z,99.90
2018-10-07T04:08:36.124Z,99.90
2018-10-07T04:11:04.895Z,99.90
2018-10-07T04:13:33.800Z,99.90
2018-10-07T04:16:02.583Z,99.90
2018-10-07T04:18:31.383Z,99.90
2018-10-07T04:21:00.281Z,99.90
2018-10-07T04:23:29.067Z,99.90
2018-10-07T04:25:57.864Z,99.90
2018-10-07T04:28:26.672Z,99.90
2018-10-07T04:30:55.453Z,99.90
2018-10-07T04:33:24.256Z,99.90
2018-10-07T04:35:52.987Z,99.90
2018-10-07T04:38:22.870Z,99.90
2018-10-07T04:40:51.640Z,99.90
2018-10-07T04:43:20.424Z,99.90
2018-10-07T04:45:49.200Z,99.90
2018-10-07T04:48:17.988Z,99.90
2018-10-07T04:50:46.756Z,99.90
2018-10-07T04:53:15.591Z,99.90
2018-10-07T04:55:44.365Z,99.90
2018-10-07T04:58:13.540Z,99.90
2018-10-07T05:00:42.407Z,99.90
2018-10-07T05:03:11.272Z,99.90
2018-10-07T05:05:40.225Z,99.90
2018-10-07T05:08:09.206Z,99.90
2018-10-07T05:10:43.505Z,99.90
2018-10-07T05:13:17.084Z,99.90
2018-10-07T05:15:46.587Z,99.90
2018-10-07T05:18:15.474Z,99.90
2018-10-07T05:20:44.294Z,99.90
2018-10-07T05:23:13.144Z,99.90
2018-10-07T05:25:42.064Z,99.90
2018-10-07T05:28:11.540Z,99.90
2018-10-07T05:30:40.494Z,99.90
2018-10-07T05:33:09.413Z,99.90
2018-10-07T05:35:38.216Z,99.90
2018-10-07T05:38:07.047Z,99.90
2018-10-07T05:40:35.904Z,99.90
2018-10-07T05:43:04.828Z,99.90
2018-10-07T05:45:33.745Z,99.90
2018-10-07T05:48:02.765Z,99.90
2018-10-07T05:50:31.603Z,99.90
2018-10-07T05:53:00.551Z,99.90
2018-10-07T05:55:30.042Z,99.90
2018-10-07T05:58:00.688Z,99.90
2018-10-07T06:00:31.426Z,99.90
2018-10-07T06:03:04.244Z,99.90
2018-10-07T06:05:33.100Z,99.90
2018-10-07T06:08:02.131Z,99.90
2018-10-07T06:10:30.973Z,99.90
2018-10-07T06:12:59.761Z,99.90
2018-10-07T06:15:32.232Z,99.90
2018-10-07T06:18:01.473Z,99.90
2018-10-07T06:20:30.729Z,99.90
2018-10-07T06:22:59.648Z,99.90
2018-10-07T06:25:28.550Z,99.90
2018-10-07T06:27:57.684Z,99.90
2018-10-07T06:30:26.526Z,99.90
2018-10-07T06:32:55.323Z,99.90
2018-10-07T06:35:24.875Z,99.90
2018-10-07T06:37:54.582Z,99.90
2018-10-07T06:40:23.401Z,99.90
2018-10-07T06:42:52.176Z,99.90
2018-10-07T06:45:21.021Z,99.90
2018-10-07T06:47:49.792Z,99.90
2018-10-07T06:50:18.764Z,99.90
2018-10-07T06:52:47.611Z,99.90
2018-10-07T06:55:16.504Z,99.90
2018-10-07T06:57:45.291Z,99.90
2018-10-07T07:00:14.149Z,99.90
2018-10-07T07:02:43.064Z,99.90
2018-10-07T07:05:11.949Z,99.90
2018-10-07T07:07:40.772Z,99.90
2018-10-07T07:10:09.660Z,99.90
2018-10-07T07:12:38.423Z,99.90
2018-10-07T07:15:07.224Z,99.90
2018-10-07T07:17:36.033Z,99.90
2018-10-07T07:20:05.094Z,99.90
2018-10-07T07:22:33.908Z,99.90
2018-10-07T07:25:04.385Z,99.90
2018-10-07T07:27:33.227Z,99.90
2018-10-07T07:30:02.126Z,99.90
2018-10-07T07:32:30.952Z,99.90
2018-10-07T07:34:59.839Z,99.90
2018-10-07T07:37:29.340Z,99.90
2018-10-07T07:39:58.261Z,99.90
2018-10-07T07:42:27.581Z,99.90
2018-10-07T07:44:56.348Z,99.90
2018-10-07T07:47:26.252Z,99.90
2018-10-07T07:49:55.309Z,99.90
2018-10-07T07:52:37.427Z,99.90
2018-10-07T07:55:06.805Z,99.90
2018-10-07T07:57:35.703Z,99.90
2018-10-07T08:00:04.738Z,99.90
2018-10-07T08:02:33.556Z,99.90
2018-10-07T08:05:02.450Z,99.90
2018-10-07T08:07:31.247Z,99.90
2018-10-07T08:10:00.096Z,99.90
2018-10-07T08:12:35.228Z,99.90
2018-10-07T08:15:04.216Z,99.90
2018-10-07T08:17:33.118Z,99.90
2018-10-07T08:20:02.144Z,99.90
2018-10-07T08:22:32.139Z,99.90
2018-10-07T08:25:01.056Z,99.90
2018-10-07T08:27:29.843Z,99.90
2018-10-07T08:29:58.679Z,99.90
2018-10-07T08:32:27.621Z,99.90
2018-10-07T08:34:57.404Z,99.90
2018-10-07T08:37:26.236Z,99.90
2018-10-07T08:39:55.118Z,99.90
2018-10-07T08:42:23.967Z,99.90
2018-10-07T08:44:52.915Z,99.90
2018-10-07T08:47:21.744Z,99.90
2018-10-07T08:49:50.616Z,99.90
2018-10-07T08:52:19.517Z,99.90
2018-10-07T08:54:48.464Z,99.90
2018-10-07T08:57:17.389Z,99.90
2018-10-07T08:59:46.208Z,99.90
2018-10-07T09:02:15.137Z,99.90
2018-10-07T09:04:43.929Z,99.90
2018-10-07T09:07:13.284Z,99.90
2018-10-07T09:09:42.127Z,99.90
2018-10-07T09:12:10.915Z,99.90
2018-10-07T09:14:39.809Z,99.90
2018-10-07T09:17:08.675Z,99.90
2018-10-07T09:19:37.604Z,99.90
2018-10-07T09:22:06.461Z,99.90
2018-10-07T09:24:35.277Z,99.90
2018-10-07T09:27:04.371Z,99.90
2018-10-07T09:29:33.119Z,99.90
2018-10-07T09:32:02.041Z,99.90
2018-10-07T09:34:30.837Z,99.90
2018-10-07T09:36:59.769Z,99.90
2018-10-07T09:39:28.785Z,99.90
2018-10-07T09:41:58.488Z,99.90
2018-10-07T09:44:27.312Z,99.90
2018-10-07T09:46:56.814Z,99.90
2018-10-07T09:49:26.252Z,99.90
2018-10-07T09:51:55.076Z,99.90
2018-10-07T09:54:23.879Z,99.90
2018-10-07T09:56:53.356Z,99.90
2018-10-07T09:59:22.535Z,99.90
2018-10-07T10:01:51.397Z,99.90
2018-10-07T10:04:20.400Z,99.90
2018-10-07T10:06:49.394Z,99.90
2018-10-07T10:09:18.244Z,99.90
2018-10-07T10:14:40.550Z,99.90
2018-10-07T10:17:10.885Z,99.90
2018-10-07T10:19:46.965Z,99.90
2018-10-07T10:22:26.180Z,99.90
2018-10-07T10:25:00.771Z,99.90
2018-10-07T10:27:54.680Z,99.90
2018-10-07T10:30:35.204Z,99.90
2018-10-07T10:33:21.076Z,99.90
2018-10-07T10:36:58.746Z,99.90
2018-10-07T10:39:34.969Z,99.90
2018-10-07T10:42:09.204Z,99.90
2018-10-07T10:44:46.957Z,99.90
2018-10-07T10:47:37.233Z,99.90
2018-10-07T10:50:53.932Z,99.90
2018-10-07T10:53:26.784Z,99.90
2018-10-07T10:56:19.297Z,99.90
2018-10-07T10:58:59.756Z,99.90
2018-10-07T11:01:37.032Z,99.90
2018-10-07T11:04:17.718Z,99.90
2018-10-07T11:07:04.326Z,99.90
2018-10-07T11:09:49.884Z,99.90
2018-10-07T11:12:42.990Z,99.90
2018-10-07T11:15:24.145Z,99.90
2018-10-07T11:18:02.688Z,99.90
2018-10-07T11:21:45.012Z,99.90
2018-10-07T11:24:19.176Z,99.90
2018-10-07T11:26:58.609Z,99.90
2018-10-07T11:29:35.762Z,99.90
2018-10-07T11:32:11.980Z,99.90
2018-10-07T11:34:46.994Z,99.90
2018-10-07T11:37:27.428Z,99.90
2018-10-07T11:40:10.937Z,99.90
2018-10-07T11:42:51.177Z,99.90
2018-10-07T11:45:28.868Z,99.90
2018-10-07T11:48:09.990Z,99.90
2018-10-07T11:51:18.281Z,99.90
2018-10-07T11:53:54.451Z,99.90
2018-10-07T11:56:23.289Z,99.90
2018-10-07T11:58:52.149Z,99.90
2018-10-07T12:01:21.416Z,99.90
2018-10-07T12:03:50.298Z,99.90
2018-10-07T12:06:19.088Z,99.90
2018-10-07T12:08:47.909Z,99.90
2018-10-07T12:11:16.786Z,99.90
2018-10-07T12:13:45.651Z,99.90
2018-10-07T12:16:19.150Z,99.90
2018-10-07T12:18:48.188Z,99.90
2018-10-07T12:21:17.029Z,99.90
2018-10-07T12:23:46.997Z,99.90
2018-10-07T12:26:16.586Z,99.90
2018-10-07T12:28:47.608Z,99.70
2018-10-07T12:31:16.494Z,98.90
2018-10-07T12:33:50.269Z,98.40
2018-10-07T12:36:19.090Z,98.00
2018-10-07T12:38:47.900Z,98.40
2018-10-07T12:41:16.858Z,96.60
2018-10-07T12:43:45.692Z,96.90
2018-10-07T12:46:14.629Z,97.20
2018-10-07T12:48:43.422Z,96.20
2018-10-07T12:51:12.350Z,96.00
2018-10-07T12:53:41.201Z,95.70
2018-10-07T12:56:10.264Z,95.40
2018-10-07T12:58:40.408Z,96.70
2018-10-07T13:01:09.655Z,93.90
2018-10-07T13:03:38.484Z,95.20
2018-10-07T13:06:07.309Z,95.20
2018-10-07T13:08:36.515Z,94.20
2018-10-07T13:11:05.488Z,93.40
2018-10-07T13:13:34.391Z,95.30
2018-10-07T13:16:03.240Z,93.50
2018-10-07T13:18:32.165Z,93.70
2018-10-07T13:21:01.032Z,93.20
2018-10-07T13:23:29.857Z,92.90
2018-10-07T13:25:58.816Z,94.90
2018-10-07T13:28:27.647Z,95.20
2018-10-07T13:30:56.618Z,92.40
2018-10-07T13:33:25.434Z,91.80
2018-10-07T13:35:54.239Z,91.80
2018-10-07T13:38:23.424Z,92.80
2018-10-07T13:40:52.239Z,91.90
2018-10-07T13:43:21.066Z,92.00
2018-10-07T13:45:49.897Z,90.60
2018-10-07T13:48:18.824Z,90.20
2018-10-07T13:50:47.722Z,90.50
2018-10-07T13:53:16.594Z,90.90
2018-10-07T13:55:45.436Z,90.60
2018-10-07T13:58:14.336Z,90.80
2018-10-07T14:00:43.144Z,91.40
2018-10-07T14:03:13.046Z,91.40
2018-10-07T14:05:42.165Z,92.00
2018-10-07T14:08:10.975Z,90.60
2018-10-07T14:10:39.793Z,90.90
2018-10-07T14:13:08.711Z,92.20
2018-10-07T14:15:37.704Z,92.40
2018-10-07T14:18:07.348Z,91.70
2018-10-07T14:20:36.672Z,91.00
2018-10-07T14:23:05.501Z,91.30
2018-10-07T14:25:34.336Z,92.00
2018-10-07T14:28:03.278Z,92.70
2018-10-07T14:30:32.272Z,93.60
2018-10-07T14:33:01.082Z,92.80
2018-10-07T14:35:30.008Z,93.40
2018-10-07T14:37:58.795Z,94.80
2018-10-07T14:40:27.644Z,94.20
2018-10-07T14:42:56.540Z,94.20
2018-10-07T14:45:25.464Z,94.20
2018-10-07T14:47:54.276Z,94.60
2018-10-07T14:50:23.117Z,94.00
2018-10-07T14:52:51.952Z,94.50
2018-10-07T14:55:20.793Z,95.60
2018-10-07T14:57:49.605Z,95.50
2018-10-07T15:00:18.441Z,95.90
2018-10-07T15:02:47.256Z,96.40
2018-10-07T15:05:16.071Z,95.70
2018-10-07T15:07:44.871Z,95.20
2018-10-07T15:10:13.687Z,94.80
2018-10-07T15:12:42.480Z,95.20
2018-10-07T15:15:11.324Z,95.30
2018-10-07T15:17:40.128Z,96.90
2018-10-07T15:20:08.953Z,97.30
2018-10-07T15:22:37.920Z,97.00
2018-10-07T15:25:06.808Z,96.70
2018-10-07T15:27:35.596Z,96.00
2018-10-07T15:30:04.645Z,96.00
2018-10-07T15:32:33.428Z,96.30
2018-10-07T15:35:02.319Z,97.50
2018-10-07T15:37:31.131Z,95.90
2018-10-07T15:39:59.950Z,96.90
2018-10-07T15:42:28.788Z,96.30
2018-10-07T15:44:57.681Z,96.10
2018-10-07T15:47:26.601Z,95.80
2018-10-07T15:49:55.352Z,97.00
2018-10-07T15:52:24.165Z,97.00
2018-10-07T15:54:53.007Z,96.70
2018-10-07T15:57:21.827Z,96.70
2018-10-07T15:59:50.743Z,96.50
2018-10-07T16:02:19.544Z,97.00
2018-10-07T16:04:48.365Z,97.00
2018-10-07T16:07:17.206Z,98.30
2018-10-07T16:09:46.197Z,98.90
2018-10-07T16:12:15.137Z,98.10
2018-10-07T16:14:44.051Z,98.60
2018-10-07T16:17:12.871Z,99.30
2018-10-07T16:19:42.780Z,99.40
2018-10-07T16:22:11.667Z,99.90
2018-10-07T16:24:40.516Z,99.90
2018-10-07T16:27:09.715Z,99.90
2018-10-07T16:29:38.637Z,99.90
2018-10-07T16:32:07.544Z,99.90
2018-10-07T16:34:36.328Z,99.90
2018-10-07T16:37:05.176Z,99.90
2018-10-07T16:39:34.260Z,99.90
2018-10-07T16:42:03.068Z,99.90
2018-10-07T16:44:31.912Z,99.90
2018-10-07T16:47:00.993Z,99.90
2018-10-07T16:49:29.834Z,99.90
2018-10-07T16:51:58.636Z,99.90
2018-10-07T16:54:27.488Z,99.90
2018-10-07T16:56:56.469Z,99.90
2018-10-07T16:59:25.803Z,99.90
2018-10-07T17:01:54.681Z,99.90
2018-10-07T17:04:23.504Z,99.90
2018-10-07T17:06:52.332Z,99.90
2018-10-07T17:09:21.187Z,99.90
2018-10-07T17:11:49.997Z,99.90
2018-10-07T17:14:18.848Z,99.90
2018-10-07T17:16:47.648Z,99.90
2018-10-07T17:19:16.483Z,99.90
2018-10-07T17:21:45.551Z,99.90
2018-10-07T17:24:14.401Z,99.90
2018-10-07T17:26:43.208Z,99.90
2018-10-07T17:29:12.046Z,99.90
2018-10-07T17:31:40.883Z,99.90
2018-10-07T17:34:09.824Z,99.90
2018-10-07T17:36:38.619Z,99.90
2018-10-07T17:39:08.966Z,99.90
2018-10-07T17:41:37.907Z,99.90
2018-10-07T17:44:06.831Z,99.90
2018-10-07T17:46:35.611Z,99.90
2018-10-07T17:49:04.562Z,99.90
2018-10-07T17:51:33.256Z,99.90
2018-10-07T17:54:02.180Z,99.90
2018-10-07T17:56:31.021Z,99.90
2018-10-07T17:58:59.953Z,99.90
2018-10-07T18:01:28.820Z,99.90
2018-10-07T18:04:01.608Z,99.90
2018-10-07T18:06:30.455Z,99.90
2018-10-07T18:08:59.406Z,99.90
2018-10-07T18:11:28.260Z,99.90
2018-10-07T18:13:57.190Z,99.90
2018-10-07T18:16:26.162Z,99.90
2018-10-07T18:18:54.948Z,99.90
2018-10-07T18:21:23.783Z,99.90
2018-10-07T18:23:52.703Z,99.90
2018-10-07T18:26:21.617Z,99.90
2018-10-07T18:28:50.490Z,99.90
2018-10-07T18:31:19.303Z,99.90
2018-10-07T18:33:48.257Z,99.90
2018-10-07T18:36:17.132Z,99.90
2018-10-07T18:38:45.933Z,99.90
2018-10-07T18:41:14.747Z,99.90
2018-10-07T18:43:43.552Z,99.90
2018-10-07T18:46:12.387Z,99.90
2018-10-07T18:48:41.316Z,99.90
2018-10-07T18:51:10.144Z,99.90
2018-10-07T18:53:39.101Z,99.90
2018-10-07T18:56:08.071Z,99.90
2018-10-07T18:58:36.843Z,99.90
2018-10-07T19:01:05.616Z,99.90
2018-10-07T19:03:34.436Z,99.90
2018-10-07T19:06:03.328Z,99.90
2018-10-07T19:08:32.349Z,99.90
2018-10-07T19:11:01.043Z,99.90
2018-10-07T19:13:29.816Z,99.90
2018-10-07T19:15:58.679Z,99.90
2018-10-07T19:18:27.471Z,99.90
2018-10-07T19:20:56.369Z,99.90
2018-10-07T19:23:25.113Z,99.90
2018-10-07T19:25:53.877Z,99.90
2018-10-07T19:28:22.681Z,99.90
2018-10-07T19:30:51.509Z,99.90
2018-10-07T19:33:20.319Z,99.90
2018-10-07T19:35:49.140Z,99.90
2018-10-07T19:38:17.997Z,99.90
2018-10-07T19:40:46.881Z,99.90
2018-10-07T19:43:15.726Z,99.90
2018-10-07T19:45:44.520Z,99.90
2018-10-07T19:48:13.354Z,99.90
2018-10-07T19:50:42.174Z,99.90
2018-10-07T19:53:10.979Z,99.90
2018-10-07T19:55:39.933Z,99.90
2018-10-07T19:58:08.744Z,99.90
2018-10-07T20:00:37.608Z,99.90
2018-10-07T20:03:06.461Z,99.90
2018-10-07T20:05:35.278Z,99.90
2018-10-07T20:08:04.108Z,99.90
2018-10-07T20:10:33.031Z,99.90
2018-10-07T20:13:01.829Z,99.90
2018-10-07T20:15:30.648Z,99.90
2018-10-07T20:17:59.445Z,99.90
2018-10-07T20:20:28.314Z,99.90
2018-10-07T20:22:57.112Z,99.90
2018-10-07T20:25:25.965Z,99.90
2018-10-07T20:27:54.857Z,99.90
2018-10-07T20:30:23.718Z,99.90
2018-10-07T20:32:52.568Z,99.90
2018-10-07T20:35:21.378Z,99.90
2018-10-07T20:37:50.264Z,99.90
2018-10-07T20:40:19.165Z,99.90
2018-10-07T20:42:47.962Z,99.90
2018-10-07T20:45:16.792Z,99.90
2018-10-07T20:47:45.630Z,99.90
2018-10-07T20:50:15.628Z,99.90
2018-10-07T20:52:44.572Z,99.90
2018-10-07T20:55:13.411Z,99.90
2018-10-07T20:57:42.548Z,99.90
2018-10-07T21:00:13.532Z,99.90
2018-10-07T21:02:42.482Z,99.90
2018-10-07T21:05:11.267Z,99.90
2018-10-07T21:07:40.396Z,99.90
2018-10-07T21:10:09.222Z,99.90
2018-10-07T21:12:38.004Z,99.90
2018-10-07T21:15:07.091Z,99.90
2018-10-07T21:17:35.924Z,99.90
2018-10-07T21:20:05.484Z,99.90
2018-10-07T21:22:34.272Z,99.90
2018-10-07T21:25:03.113Z,99.90
2018-10-07T21:27:32.149Z,99.90
2018-10-07T21:30:01.028Z,99.90
2018-10-07T21:32:29.807Z,99.90
2018-10-07T21:34:58.645Z,99.90
2018-10-07T21:37:27.607Z,99.90
2018-10-07T21:39:56.391Z,99.90
2018-10-07T21:42:25.285Z,99.90
2018-10-07T21:44:54.254Z,99.90
2018-10-07T21:47:24.144Z,99.90
2018-10-07T21:49:53.671Z,99.90
2018-10-07T21:52:22.570Z,99.90
2018-10-07T21:54:51.473Z,99.90
2018-10-07T21:57:20.343Z,99.90
2018-10-07T21:59:49.221Z,99.90
2018-10-07T22:02:18.049Z,99.90
2018-10-07T22:04:47.260Z,99.90
2018-10-07T22:07:16.156Z,99.90
2018-10-07T22:09:44.970Z,99.90
2018-10-07T22:12:13.796Z,99.90
2018-10-07T22:14:42.636Z,99.90
2018-10-07T22:17:11.983Z,99.90
2018-10-07T22:19:40.851Z,99.90
2018-10-07T22:22:09.704Z,99.90
2018-10-07T22:24:38.511Z,99.90
2018-10-07T22:27:08.463Z,99.90
2018-10-07T22:29:37.308Z,99.90
2018-10-07T22:32:06.243Z,99.90
2018-10-07T22:34:35.205Z,99.90
2018-10-07T22:37:04.390Z,99.90
2018-10-07T22:39:33.327Z,99.90
2018-10-07T22:42:02.221Z,99.90
2018-10-07T22:44:31.055Z,99.90
2018-10-07T22:46:59.911Z,99.90
2018-10-07T22:49:28.872Z,99.90
2018-10-07T22:51:57.773Z,99.90
2018-10-07T22:54:26.623Z,99.90
2018-10-07T22:56:55.438Z,99.90
2018-10-07T22:59:24.285Z,99.90
2018-10-07T23:01:53.207Z,99.90
2018-10-07T23:04:22.107Z,99.90
2018-10-07T23:06:50.904Z,99.90
2018-10-07T23:09:19.786Z,99.90
2018-10-07T23:11:49.356Z,99.90
2018-10-07T23:14:18.194Z,99.90
2018-10-07T23:16:47.005Z,99.90
2018-10-07T23:19:15.891Z,99.90
2018-10-07T23:21:44.791Z,99.90
2018-10-07T23:24:13.696Z,99.90
2018-10-07T23:26:44.376Z,99.90
2018-10-07T23:29:13.216Z,99.90
2018-10-07T23:31:42.076Z,99.90
2018-10-07T23:34:11.276Z,99.90
2018-10-07T23:39:23.899Z,99.90
2018-10-07T23:41:53.407Z,99.90
2018-10-07T23:44:22.219Z,99.90
2018-10-07T23:46:51.010Z,99.90
2018-10-07T23:49:19.960Z,99.90
2018-10-07T23:51:48.951Z,99.90
2018-10-07T23:54:17.643Z,99.90
2018-10-07T23:56:47.149Z,99.90
2018-10-07T23:59:15.973Z,99.90
